Time;durP1;ratioP1;P1;durP2;ratioP2;P2;SDS_P1;SDS_P2;PMS_P1;PMS_P2;Temp;Humidity;BMP_temperature;BMP_pressure;BME280_temperature;BME280_humidity;BME280_pressure;Samples;Min_cycle;Max_cycle;Signal;HPM_P1;HPM_P2
2022/03/18 05:12:19;;;;;;;0.00;0.00;;;;;;;4.21;52.07;101096.97;6292376;22;20101;-78
2022/03/18 05:14:44;;;;;;;0.00;0.00;;;;;;;4.46;50.18;101094.00;6295794;22;20032;-77
2022/03/18 05:17:57;;;;;;;0.00;0.00;;;;;;;4.73;50.47;101089.03;6248184;22;20057;-81
2022/03/18 05:24:06;;;;;;;0.00;0.00;;;;;;;4.99;48.50;101093.78;6307218;22;20376;-79
2022/03/18 05:26:32;;;;;;;0.03;0.03;;;;;;;5.05;48.22;101100.16;6281530;22;20012;-78
2022/03/18 05:28:58;;;;;;;0.00;0.00;;;;;;;5.13;47.94;101105.38;6286965;22;20003;-78
2022/03/18 05:31:25;;;;;;;1.15;1.13;;;;;;;5.02;47.42;101108.53;6307657;22;20015;-79
2022/03/18 05:33:51;;;;;;;0.10;0.10;;;;;;;4.95;48.36;101113.75;6279908;22;20031;-79
2022/03/18 05:36:17;;;;;;;0.00;0.00;;;;;;;4.97;48.48;101112.53;6279183;22;20248;-80
2022/03/18 05:38:42;;;;;;;0.00;0.00;;;;;;;4.95;47.85;101116.38;6280604;22;20003;-80
2022/03/18 05:41:07;;;;;;;0.00;0.00;;;;;;;4.85;48.91;101118.53;6307133;22;20467;-79
2022/03/18 05:43:33;;;;;;;0.10;0.10;;;;;;;4.73;48.28;101124.28;6279141;22;20011;-80
2022/03/18 05:45:59;;;;;;;0.00;0.00;;;;;;;4.76;48.49;101126.59;6278439;22;20090;-80
2022/03/18 05:48:24;;;;;;;0.80;0.80;;;;;;;4.62;48.41;101122.94;6278194;22;20014;-79
2022/03/18 05:50:50;;;;;;;0.10;0.10;;;;;;;4.51;47.13;101135.84;6278358;22;20011;-80
2022/03/18 05:53:15;;;;;;;0.00;0.00;;;;;;;4.43;46.89;101132.31;6278858;22;20007;-80
2022/03/18 05:58:25;;;;;;;0.10;0.10;;;;;;;4.24;45.92;101138.16;6305128;22;20010;-80
2022/03/18 06:00:50;;;;;;;0.00;0.00;;;;;;;4.15;45.67;101153.28;6278412;22;20015;-79
2022/03/18 06:03:16;;;;;;;0.05;0.05;;;;;;;4.18;47.11;101154.78;6278699;22;20094;-79
2022/03/18 06:05:42;;;;;;;0.00;0.00;;;;;;;4.26;46.62;101154.66;6277862;22;20000;-79
2022/03/18 06:13:37;;;;;;;0.08;0.08;;;;;;;4.17;44.27;101172.47;6306124;22;20112;-79
2022/03/18 06:16:02;;;;;;;0.00;0.00;;;;;;;4.17;43.79;101167.16;6280036;22;20038;-79
2022/03/18 06:18:27;;;;;;;0.00;0.00;;;;;;;4.15;42.49;101169.16;6306088;22;19999;-79
2022/03/18 06:20:55;;;;;;;0.20;0.20;;;;;;;4.01;42.80;101166.31;6303918;22;20011;-79
2022/03/18 06:23:21;;;;;;;0.03;0.03;;;;;;;4.06;43.37;101173.72;6278564;22;20045;-80
2022/03/18 06:25:46;;;;;;;0.10;0.10;;;;;;;3.84;38.45;101184.19;6277580;22;20449;-80
2022/03/18 06:28:12;;;;;;;0.03;0.03;;;;;;;3.76;39.98;101168.38;6279280;22;20014;-79
2022/03/18 06:30:37;;;;;;;0.20;0.20;;;;;;;3.75;39.44;101182.59;6279101;22;20010;-79
2022/03/18 06:33:03;;;;;;;0.00;0.00;;;;;;;3.62;37.11;101183.19;6280556;22;20161;-78
2022/03/18 06:35:28;;;;;;;0.82;0.82;;;;;;;3.54;37.31;101191.22;6279551;22;20035;-78
2022/03/18 06:37:54;;;;;;;0.60;0.60;;;;;;;3.48;37.81;101191.91;6279379;22;20003;-78
2022/03/18 06:40:20;;;;;;;1.15;1.15;;;;;;;3.46;38.00;101188.63;6279103;22;20014;-78
2022/03/18 06:42:46;;;;;;;0.00;0.00;;;;;;;3.44;38.18;101201.19;6278061;22;20003;-80
2022/03/18 06:45:11;;;;;;;1.73;1.60;;;;;;;3.41;38.06;101214.78;6277980;22;20064;-80
2022/03/18 06:47:38;;;;;;;0.52;0.52;;;;;;;3.36;37.97;101205.53;6187520;22;20445;-79
2022/03/18 06:50:04;;;;;;;0.00;0.00;;;;;;;3.39;38.06;101199.06;6279427;22;20010;-79
2022/03/18 06:52:29;;;;;;;0.00;0.00;;;;;;;3.41;37.35;101198.91;6278400;22;20015;-79
2022/03/18 06:54:55;;;;;;;1.20;1.17;;;;;;;3.23;35.62;101215.84;6277931;22;20003;-80
2022/03/18 06:57:21;;;;;;;1.02;1.02;;;;;;;3.23;37.18;101212.41;6277730;22;20086;-81
2022/03/18 06:59:46;;;;;;;4.43;1.00;;;;;;;3.15;36.22;101218.53;6278145;22;20063;-81
2022/03/18 07:02:13;;;;;;;0.77;0.77;;;;;;;2.76;37.16;101220.19;6279589;22;20508;-81
2022/03/18 07:04:39;;;;;;;0.00;0.00;;;;;;;2.69;36.78;101198.09;6277389;22;20065;-80
2022/03/18 07:07:06;;;;;;;0.85;0.85;;;;;;;2.67;38.23;101192.16;6277589;22;19995;-80
2022/03/18 07:09:31;;;;;;;1.42;1.33;;;;;;;2.74;39.48;101208.16;6277921;22;19999;-80
2022/03/18 07:11:57;;;;;;;0.50;0.50;;;;;;;2.66;38.33;101211.63;6277764;22;20002;-80
2022/03/18 07:14:22;;;;;;;0.40;0.40;;;;;;;2.72;39.09;101216.25;6278491;22;20003;-80
2022/03/18 07:19:33;;;;;;;0.00;0.00;;;;;;;2.79;36.95;101222.50;6305104;22;20034;-79
2022/03/18 07:21:59;;;;;;;1.25;0.98;;;;;;;2.84;37.27;101236.00;6201046;22;20007;-80
2022/03/18 07:24:24;;;;;;;0.00;0.00;;;;;;;2.88;37.47;101223.28;6278038;22;20486;-80
2022/03/18 07:26:50;;;;;;;0.47;0.47;;;;;;;2.95;37.32;101226.06;6278324;22;20003;-79
2022/03/18 07:29:15;;;;;;;1.13;1.13;;;;;;;3.04;37.22;101233.00;6279429;22;20003;-79
2022/03/18 07:31:41;;;;;;;0.00;0.00;;;;;;;3.01;34.51;101215.63;6281200;22;20459;-80
2022/03/18 07:34:06;;;;;;;0.00;0.00;;;;;;;2.90;33.67;101223.13;6280607;22;20010;-81
2022/03/18 07:36:32;;;;;;;0.20;0.20;;;;;;;2.91;34.34;101227.44;6205190;22;20148;-80
2022/03/18 07:38:58;;;;;;;0.32;0.15;;;;;;;2.93;33.90;101198.97;6279732;22;20035;-79
2022/03/18 07:41:24;;;;;;;0.00;0.00;;;;;;;2.83;33.81;101241.47;6307489;22;20003;-79
2022/03/18 07:43:49;;;;;;;1.48;1.38;;;;;;;2.80;34.25;101218.03;6280275;22;20010;-79
2022/03/18 07:46:15;;;;;;;0.30;0.30;;;;;;;2.86;32.96;101257.00;6175596;22;20003;-80
2022/03/18 07:48:43;;;;;;;0.10;0.10;;;;;;;2.94;33.59;101235.84;6214850;22;20007;-79
2022/03/18 07:51:08;;;;;;;0.00;0.00;;;;;;;2.95;32.79;101218.94;6280694;22;20094;-80
2022/03/18 07:53:34;;;;;;;0.47;0.47;;;;;;;3.00;33.67;101236.94;6174910;22;20027;-81
2022/03/18 07:56:00;;;;;;;0.00;0.00;;;;;;;2.98;32.11;101236.28;6279711;22;20007;-80
2022/03/18 07:58:25;;;;;;;0.00;0.00;;;;;;;2.99;32.05;101240.59;6280343;22;20397;-81
2022/03/18 08:03:16;;;;;;;0.14;0.14;;;;;;;3.01;34.25;101212.97;6308465;22;20014;-79
2022/03/18 08:05:41;;;;;;;0.00;0.00;;;;;;;3.17;34.96;101216.53;6281106;22;20003;-79
2022/03/18 08:08:07;;;;;;;0.30;0.30;;;;;;;3.29;33.67;101220.44;6308978;22;20006;-79
2022/03/18 08:10:32;;;;;;;0.00;0.00;;;;;;;3.34;33.78;101204.06;6280193;22;20014;-78
2022/03/18 08:12:58;;;;;;;1.75;1.33;;;;;;;3.46;33.14;101217.72;6280885;22;20330;-80
2022/03/18 08:15:24;;;;;;;1.98;1.55;;;;;;;3.50;33.19;101222.50;6270796;22;20361;-80
2022/03/18 08:17:52;;;;;;;0.10;0.10;;;;;;;3.57;32.94;101233.19;6279601;22;20065;-79
2022/03/18 08:20:18;;;;;;;0.30;0.30;;;;;;;3.50;33.35;101217.19;6206225;22;20028;-80
2022/03/18 08:22:44;;;;;;;0.10;0.10;;;;;;;3.61;34.16;101215.13;6279727;22;20004;-80
2022/03/18 08:25:10;;;;;;;0.00;0.00;;;;;;;3.67;33.25;101212.63;6279352;22;20000;-80
2022/03/18 08:27:36;;;;;;;0.00;0.00;;;;;;;3.68;33.94;101192.25;6279575;22;20003;-79
2022/03/18 08:30:04;;;;;;;0.00;0.00;;;;;;;3.89;32.31;101204.00;6280416;22;20011;-80
2022/03/18 08:32:29;;;;;;;0.00;0.00;;;;;;;3.97;34.00;101201.31;6279421;22;20007;-78
2022/03/18 08:34:57;;;;;;;0.30;0.30;;;;;;;4.20;33.99;101209.19;6279329;22;20018;-80
2022/03/18 08:38:07;;;;;;;0.00;0.00;;;;;;;4.32;33.16;101205.09;6306983;22;20003;-80
2022/03/18 08:40:12;;;;;;;0.10;0.10;;;;;;;4.45;33.75;101206.28;6289386;22;20010;-80
2022/03/18 08:42:38;;;;;;;0.00;0.00;;;;;;;4.55;33.26;101204.19;6279173;22;20445;-80
2022/03/18 08:45:05;;;;;;;5.10;0.95;;;;;;;4.61;33.87;101197.34;6306414;22;20007;-81
2022/03/18 08:47:30;;;;;;;0.00;0.00;;;;;;;4.51;31.98;101204.75;6279004;22;20082;-80
2022/03/18 08:49:56;;;;;;;0.00;0.00;;;;;;;4.47;31.76;101185.75;6279222;22;20030;-80
2022/03/18 08:52:21;;;;;;;0.20;0.20;;;;;;;4.31;32.85;101174.31;6279570;22;20000;-81
2022/03/18 08:54:47;;;;;;;0.00;0.00;;;;;;;4.40;32.87;101180.34;6279388;22;20023;-80
2022/03/18 08:57:13;;;;;;;0.00;0.00;;;;;;;4.54;33.34;101176.06;6278635;22;20011;-80
2022/03/18 08:59:38;;;;;;;0.00;0.00;;;;;;;4.55;32.17;101182.97;6279382;22;19999;-80
2022/03/18 09:02:04;;;;;;;0.00;0.00;;;;;;;4.54;32.03;101185.81;6278933;22;20326;-79
2022/03/18 09:04:29;;;;;;;0.00;0.00;;;;;;;4.48;31.67;101164.34;6278621;22;20018;-79
2022/03/18 09:06:55;;;;;;;0.00;0.00;;;;;;;4.61;32.88;101160.22;6303711;22;20360;-79
2022/03/18 09:09:20;;;;;;;0.00;0.00;;;;;;;4.67;31.90;101148.09;6278141;22;20090;-79
2022/03/18 09:11:46;;;;;;;0.03;0.03;;;;;;;4.64;31.69;101158.03;6304365;22;20356;-79
2022/03/18 09:14:12;;;;;;;0.00;0.00;;;;;;;4.60;31.10;101164.72;6278370;22;20003;-80
2022/03/18 09:16:38;;;;;;;0.00;0.00;;;;;;;4.47;31.27;101164.53;6278697;22;20034;-80
2022/03/18 09:19:07;;;;;;;2.55;2.22;;;;;;;4.37;32.07;101159.53;6278878;22;20018;-79
2022/03/18 09:21:34;;;;;;;0.00;0.00;;;;;;;4.28;31.94;101157.97;6279425;22;20086;-80
2022/03/18 09:24:01;;;;;;;0.08;0.08;;;;;;;4.22;32.51;101163.97;6279261;22;20023;-80
2022/03/18 09:26:26;;;;;;;0.20;0.20;;;;;;;4.02;32.25;101143.31;6279237;22;20103;-79
2022/03/18 09:28:52;;;;;;;0.00;0.00;;;;;;;4.06;31.79;101149.09;6278801;22;20444;-79
2022/03/18 09:31:18;;;;;;;0.10;0.10;;;;;;;4.12;33.07;101148.38;6279337;22;20007;-79
2022/03/18 09:33:46;;;;;;;0.08;0.08;;;;;;;4.24;33.48;101141.59;6306468;22;20000;-80
2022/03/18 09:36:11;;;;;;;0.00;0.00;;;;;;;4.24;30.86;101140.81;6278515;22;20420;-79
2022/03/18 09:38:37;;;;;;;0.00;0.00;;;;;;;4.40;31.00;101134.50;6304467;22;20233;-79
2022/03/18 09:41:05;;;;;;;0.00;0.00;;;;;;;4.32;28.08;101151.28;6278498;22;20065;-80
2022/03/18 09:43:38;;;;;;;0.10;0.10;;;;;;;4.38;28.89;101147.09;6278255;22;20421;-79
2022/03/18 09:46:05;;;;;;;0.35;0.35;;;;;;;4.41;29.46;101131.66;6278063;22;20035;-80
2022/03/18 09:48:31;;;;;;;0.00;0.00;;;;;;;4.49;28.33;101154.56;6277868;22;20011;-80
2022/03/18 09:50:57;;;;;;;0.00;0.00;;;;;;;4.48;28.84;101137.88;6278286;22;20007;-79
2022/03/18 09:53:24;;;;;;;0.45;0.45;;;;;;;4.43;28.55;101153.50;6277738;22;20037;-80
2022/03/18 09:55:53;;;;;;;0.00;0.00;;;;;;;4.51;28.85;101152.56;6278760;22;20004;-79
2022/03/18 09:58:22;;;;;;;0.00;0.00;;;;;;;4.56;29.36;101158.13;6278222;22;19999;-79
2022/03/18 10:00:50;;;;;;;0.00;0.00;;;;;;;4.57;28.96;101133.28;6278705;22;20575;-79
2022/03/18 10:03:18;;;;;;;0.22;0.22;;;;;;;4.65;29.72;101146.44;6277717;22;20011;-79
2022/03/18 10:05:59;;;;;;;0.52;0.52;;;;;;;4.70;29.59;101139.75;6278244;22;20003;-79
2022/03/18 10:08:25;;;;;;;0.22;0.22;;;;;;;4.75;30.34;101142.69;6279148;22;20014;-80
2022/03/18 10:10:51;;;;;;;3.83;1.35;;;;;;;4.69;28.95;101148.69;6278432;22;20004;-80
2022/03/18 10:13:18;;;;;;;0.15;0.15;;;;;;;4.68;29.50;101141.78;6278246;22;20060;-79
2022/03/18 10:15:44;;;;;;;0.00;0.00;;;;;;;4.69;29.81;101132.81;6279213;22;20000;-78
2022/03/18 10:18:14;;;;;;;0.00;0.00;;;;;;;4.72;29.93;101146.50;6279836;22;20011;-80
2022/03/18 10:20:42;;;;;;;0.22;0.22;;;;;;;4.83;32.00;101131.16;6279161;22;20453;-80
2022/03/18 10:23:25;;;;;;;0.00;0.00;;;;;;;4.91;30.92;101123.09;6278349;22;20011;-80
2022/03/18 10:25:57;;;;;;;0.00;0.00;;;;;;;5.05;29.43;101118.75;6277897;22;20006;-80
2022/03/18 10:28:41;;;;;;;0.00;0.00;;;;;;;5.21;31.45;101115.84;6277305;22;20007;-80
2022/03/18 10:31:14;;;;;;;0.05;0.05;;;;;;;5.34;30.59;101115.16;6277882;22;20041;-80
2022/03/18 10:39:22;;;;;;;0.10;0.10;;;;;;;5.40;28.68;101111.72;6305294;22;20037;-80
2022/03/18 10:41:48;;;;;;;0.00;0.00;;;;;;;5.55;30.73;101109.00;6277757;22;20006;-80
2022/03/18 10:44:15;;;;;;;0.00;0.00;;;;;;;5.50;29.54;101114.06;6277917;22;20011;-81
2022/03/18 10:46:41;;;;;;;0.20;0.20;;;;;;;5.36;28.83;101097.22;6303920;22;20411;-80
2022/03/18 10:49:07;;;;;;;0.47;0.47;;;;;;;5.45;30.40;101101.34;6303464;22;19995;-80
2022/03/18 10:51:34;;;;;;;0.43;0.43;;;;;;;5.61;31.44;101097.63;6277212;22;20472;-81
2022/03/18 10:54:00;;;;;;;0.00;0.00;;;;;;;5.68;29.30;101107.47;6277555;22;20004;-78
2022/03/18 10:56:26;;;;;;;0.00;0.00;;;;;;;5.67;28.88;101111.16;6277200;22;20052;-80
2022/03/18 10:58:52;;;;;;;0.15;0.15;;;;;;;5.49;29.70;101088.53;6277297;22;20007;-81
2022/03/18 11:01:19;;;;;;;0.00;0.00;;;;;;;5.61;29.92;101104.75;6304829;22;20064;-80
2022/03/18 11:03:47;;;;;;;0.52;0.52;;;;;;;5.65;31.00;101098.06;6278033;22;20056;-80
2022/03/18 11:06:16;;;;;;;0.98;0.98;;;;;;;5.78;30.91;101094.69;6279437;22;20011;-80
2022/03/18 11:08:47;;;;;;;0.00;0.00;;;;;;;5.93;31.06;101102.53;6280191;22;20004;-80
2022/03/18 11:11:17;;;;;;;0.00;0.00;;;;;;;6.07;29.68;101098.16;6279486;22;20007;-80
2022/03/18 11:14:06;;;;;;;1.23;1.23;;;;;;;6.17;29.03;101095.97;6280164;22;20007;-79
2022/03/18 11:16:36;;;;;;;2.45;1.48;;;;;;;6.32;28.70;101095.84;6279064;22;20034;-79
2022/03/18 11:19:05;;;;;;;0.15;0.15;;;;;;;6.48;29.76;101089.41;6279711;22;20007;-79
2022/03/18 11:21:40;;;;;;;0.00;0.00;;;;;;;6.53;29.54;101094.94;6279669;22;20007;-80
2022/03/18 11:24:07;;;;;;;0.00;0.00;;;;;;;6.62;29.52;101100.09;6279889;22;20019;-80
2022/03/18 11:26:35;;;;;;;0.00;0.00;;;;;;;6.68;28.88;101088.66;6279594;22;20090;-80
2022/03/18 11:29:09;;;;;;;0.00;0.00;;;;;;;6.75;28.81;101086.00;6280707;22;20015;-80
2022/03/18 11:31:35;;;;;;;0.75;0.75;;;;;;;6.74;28.65;101085.19;6281623;22;20299;-80
2022/03/18 11:34:20;;;;;;;0.00;0.00;;;;;;;6.62;27.83;101076.97;6308116;22;20452;-81
2022/03/18 11:37:04;;;;;;;0.00;0.00;;;;;;;6.65;29.92;101068.59;6281548;22;20555;-81
2022/03/18 11:39:30;;;;;;;0.00;0.00;;;;;;;6.69;28.48;101066.34;6282329;22;20007;-80
2022/03/18 11:42:03;;;;;;;0.00;0.00;;;;;;;6.69;27.95;101067.16;6281173;22;20105;-79
2022/03/18 11:44:52;;;;;;;0.00;0.00;;;;;;;6.66;26.89;101072.88;6279739;22;20007;-81
2022/03/18 11:47:20;;;;;;;0.10;0.10;;;;;;;6.53;26.05;101068.34;6279550;22;20007;-79
2022/03/18 11:49:49;;;;;;;;;;;;;;;6.49;27.74;101064.44;6280248;22;20348;-80
2022/03/18 11:52:15;;;;;;;0.00;0.00;;;;;;;6.33;26.96;101078.88;6279825;22;19945;-81
2022/03/18 11:55:07;;;;;;;0.00;0.00;;;;;;;6.25;27.90;101053.31;6279244;22;20098;-80
2022/03/18 11:57:45;;;;;;;0.00;0.00;;;;;;;6.40;28.90;101065.63;6278612;22;20041;-80
2022/03/18 12:00:29;;;;;;;0.00;0.00;;;;;;;6.43;28.93;101054.59;6279042;22;19999;-80
2022/03/18 12:02:55;;;;;;;0.20;0.20;;;;;;;6.54;28.42;101043.41;6306716;22;20010;-80
2022/03/18 12:05:21;;;;;;;0.00;0.00;;;;;;;6.53;26.64;101078.97;6280032;22;20089;-81
2022/03/18 12:07:48;;;;;;;0.10;0.10;;;;;;;6.54;28.11;101058.53;6304901;22;20504;-80
2022/03/18 12:10:15;;;;;;;0.00;0.00;;;;;;;6.67;29.00;101055.91;6279420;22;20086;-81
2022/03/18 12:12:46;;;;;;;0.00;0.00;;;;;;;6.67;27.66;101042.59;6278993;22;20006;-80
2022/03/18 12:15:19;;;;;;;0.00;0.00;;;;;;;6.77;27.11;101044.06;6279229;22;20041;-80
2022/03/18 12:17:51;;;;;;;0.10;0.10;;;;;;;6.73;27.63;101038.34;6279250;22;20015;-80
2022/03/18 12:20:24;;;;;;;0.10;0.10;;;;;;;6.76;27.75;101045.91;6279072;22;20011;-80
2022/03/18 12:22:51;;;;;;;0.00;0.00;;;;;;;6.81;26.68;101038.16;6278830;22;20011;-81
2022/03/18 12:25:18;;;;;;;0.00;0.00;;;;;;;6.86;27.98;101033.03;6306600;22;20056;-81
2022/03/18 12:27:44;;;;;;;0.00;0.00;;;;;;;6.86;27.09;101046.34;6280883;22;20003;-80
2022/03/18 12:30:15;;;;;;;0.00;0.00;;;;;;;6.66;26.20;101046.28;6282791;22;20011;-81
2022/03/18 12:32:52;;;;;;;0.00;0.00;;;;;;;6.68;27.81;101040.78;6282396;22;20398;-81
2022/03/18 12:35:19;;;;;;;0.00;0.00;;;;;;;6.76;27.55;101042.44;6278539;22;20018;-80
2022/03/18 12:37:46;;;;;;;1.80;1.65;;;;;;;6.58;26.72;101022.56;6278745;22;20455;-81
2022/03/18 12:40:19;;;;;;;0.10;0.10;;;;;;;6.56;26.95;101014.75;6278850;22;19995;-80
2022/03/18 12:42:49;;;;;;;0.00;0.00;;;;;;;6.56;26.92;101005.97;6279080;22;20008;-79
2022/03/18 12:45:25;;;;;;;0.00;0.00;;;;;;;6.37;26.96;101036.78;6308552;22;20064;-80
2022/03/18 12:47:53;;;;;;;0.00;0.00;;;;;;;6.52;28.19;101024.16;6278902;22;20094;-80
2022/03/18 12:50:18;;;;;;;0.00;0.00;;;;;;;6.38;26.09;101027.78;6307572;22;20505;-81
2022/03/18 12:52:44;;;;;;;0.00;0.00;;;;;;;6.43;26.31;101001.44;6305018;22;20003;-81
2022/03/18 12:55:17;;;;;;;0.17;0.17;;;;;;;6.46;27.61;101011.69;6305564;22;20105;-81
2022/03/18 12:57:42;;;;;;;0.10;0.10;;;;;;;6.29;26.57;101015.72;6280729;22;20000;-81
2022/03/18 13:00:11;;;;;;;0.10;0.10;;;;;;;6.38;27.30;100996.75;6279342;22;20003;-80
2022/03/18 13:02:41;;;;;;;0.00;0.00;;;;;;;6.53;28.86;100993.91;6279363;22;20022;-80
2022/03/18 13:05:07;;;;;;;3.92;1.00;;;;;;;6.64;27.00;100986.34;6279575;22;20018;-80
2022/03/18 13:07:33;;;;;;;0.00;0.00;;;;;;;6.73;28.20;100990.47;6279051;22;20007;-81
2022/03/18 13:09:59;;;;;;;0.30;0.30;;;;;;;6.73;27.27;100999.25;6279854;22;20033;-81
2022/03/18 13:12:26;;;;;;;0.00;0.00;;;;;;;6.60;27.00;100993.91;6281426;22;20444;-80
2022/03/18 13:14:55;;;;;;;0.00;0.00;;;;;;;6.67;28.13;100970.00;6281284;22;20417;-80
2022/03/18 13:17:30;;;;;;;0.00;0.00;;;;;;;6.71;26.68;100989.84;6282747;22;20419;-81
2022/03/18 13:19:56;;;;;;;0.00;0.00;;;;;;;6.77;26.30;100981.06;6281888;22;20082;-79
2022/03/18 13:22:23;;;;;;;0.68;0.68;;;;;;;6.84;27.00;100992.53;6278959;22;20027;-79
2022/03/18 13:24:51;;;;;;;0.10;0.10;;;;;;;6.81;26.00;100984.13;6278628;22;20083;-80
2022/03/18 13:27:18;;;;;;;0.00;0.00;;;;;;;6.89;25.78;100995.38;6278719;22;20338;-81
2022/03/18 13:35:14;;;;;;;0.10;0.10;;;;;;;7.10;26.32;100985.56;6306267;22;20014;-81
2022/03/18 13:37:41;;;;;;;0.75;0.75;;;;;;;7.00;25.33;100990.50;6280480;22;20513;-82
2022/03/18 13:40:36;;;;;;;0.20;0.20;;;;;;;7.01;25.56;100992.13;6261411;22;20015;-82
2022/03/18 13:43:08;;;;;;;0.32;0.32;;;;;;;6.96;25.80;100992.75;6281017;22;20064;-82
2022/03/18 13:45:36;;;;;;;0.00;0.00;;;;;;;7.02;26.27;100996.44;6306603;22;20003;-80
2022/03/18 13:48:03;;;;;;;0.00;0.00;;;;;;;7.09;25.74;100989.25;6278294;22;20145;-80
2022/03/18 13:50:47;;;;;;;0.43;0.43;;;;;;;6.96;25.69;100990.09;6278459;22;20007;-81
2022/03/18 13:53:24;;;;;;;0.00;0.00;;;;;;;6.99;25.35;101002.97;6278816;22;20006;-81
2022/03/18 13:55:51;;;;;;;0.00;0.00;;;;;;;6.89;25.41;101006.03;6279912;22;19997;-81
2022/03/18 13:58:32;;;;;;;0.55;0.55;;;;;;;6.81;25.55;100989.44;6280813;22;20006;-81
2022/03/18 14:01:11;;;;;;;0.75;0.75;;;;;;;6.64;25.92;101005.81;6280016;22;20003;-81
2022/03/18 14:03:39;;;;;;;0.22;0.22;;;;;;;6.61;26.05;101000.06;6278028;22;20003;-81
2022/03/18 14:06:05;;;;;;;0.65;0.65;;;;;;;6.54;26.52;100970.78;6278555;22;20436;-81
2022/03/18 14:08:38;;;;;;;0.65;0.65;;;;;;;6.60;27.04;100966.53;6278244;22;20003;-81
2022/03/18 14:12:08;;;;;;;0.10;0.10;;;;;;;6.60;26.72;100970.00;6282379;22;20026;-82
2022/03/18 14:13:50;;;;;;;0.00;0.00;;;;;;;6.65;26.43;100986.19;6305411;22;20008;-81
2022/03/18 14:16:16;;;;;;;1.00;1.00;;;;;;;6.60;26.71;100975.31;6304482;22;20444;-81
2022/03/18 14:18:43;;;;;;;0.00;0.00;;;;;;;6.67;26.96;100975.31;6303957;22;20037;-81
2022/03/18 14:21:11;;;;;;;0.40;0.40;;;;;;;6.78;27.79;100979.22;6278182;22;20440;-80
2022/03/18 14:23:46;;;;;;;0.00;0.00;;;;;;;6.87;26.96;100992.13;6277698;22;20037;-81
2022/03/18 14:26:13;;;;;;;0.00;0.00;;;;;;;6.83;25.40;100966.94;6279346;22;20042;-80
2022/03/18 14:28:41;;;;;;;0.00;0.00;;;;;;;6.91;25.47;100983.72;6278016;22;20007;-80
2022/03/18 14:31:07;;;;;;;;;;;;;;;7.00;25.91;100978.00;6278806;22;20344;-80
2022/03/18 14:33:35;;;;;;;0.00;0.00;;;;;;;6.99;26.23;100983.53;6279571;22;19903;-80
2022/03/18 14:36:01;;;;;;;0.00;0.00;;;;;;;7.01;24.74;100978.84;6278381;22;20095;-80
2022/03/18 14:38:27;;;;;;;0.00;0.00;;;;;;;7.05;25.61;100974.75;6279514;22;20034;-80
2022/03/18 14:40:54;;;;;;;0.35;0.35;;;;;;;7.01;26.25;100990.28;6281652;22;20010;-80
2022/03/18 14:43:21;;;;;;;4.50;1.40;;;;;;;6.93;26.57;100995.00;6309153;22;20012;-81
2022/03/18 14:45:48;;;;;;;0.10;0.10;;;;;;;6.91;26.13;100991.72;6280715;22;20022;-80
2022/03/18 14:48:14;;;;;;;0.05;0.05;;;;;;;6.78;26.69;100984.56;6281186;22;20064;-80
2022/03/18 14:50:40;;;;;;;4.07;0.90;;;;;;;6.73;27.48;100990.47;6280518;22;20415;-80
2022/03/18 14:53:14;;;;;;;0.32;0.32;;;;;;;6.68;26.25;101004.38;6280569;22;20143;-80
2022/03/18 14:58:25;;;;;;;0.10;0.10;;;;;;;6.48;25.35;101007.00;6308210;22;20013;-81
2022/03/18 15:00:51;;;;;;;0.20;0.20;;;;;;;6.51;26.26;100995.94;6279714;22;20007;-80
2022/03/18 15:03:17;;;;;;;0.20;0.20;;;;;;;6.41;25.33;100979.56;6280966;22;19995;-80
2022/03/18 15:05:43;;;;;;;0.90;0.85;;;;;;;6.40;26.17;100986.72;6279451;22;20436;-80
2022/03/18 15:08:08;;;;;;;0.00;0.00;;;;;;;6.40;26.78;101000.00;6280383;22;19999;-81
2022/03/18 15:10:38;;;;;;;0.00;0.00;;;;;;;6.30;27.00;101017.34;6280077;22;20007;-82
2022/03/18 15:13:07;;;;;;;0.13;0.13;;;;;;;6.24;27.34;101011.81;6280394;22;20003;-81
2022/03/18 15:15:37;;;;;;;0.00;0.00;;;;;;;6.24;27.22;100993.19;6283075;22;20317;-82
2022/03/18 15:18:04;;;;;;;0.00;0.00;;;;;;;6.15;27.53;100990.91;6280416;22;19999;-80
2022/03/18 15:20:30;;;;;;;0.38;0.38;;;;;;;6.12;27.99;100992.13;6279393;22;20003;-81
2022/03/18 15:22:56;;;;;;;0.10;0.10;;;;;;;6.17;28.24;100987.03;6279514;22;20039;-80
2022/03/18 15:25:23;;;;;;;0.10;0.10;;;;;;;6.20;28.39;100994.63;6279247;22;20010;-80
2022/03/18 15:27:48;;;;;;;0.20;0.20;;;;;;;6.22;28.78;101015.69;6279811;22;20098;-78
2022/03/18 15:30:14;;;;;;;0.00;0.00;;;;;;;6.06;27.58;101000.91;6281151;22;20003;-80
2022/03/18 15:32:39;;;;;;;0.20;0.20;;;;;;;6.10;28.00;101010.09;6280628;22;20018;-81
2022/03/18 15:35:06;;;;;;;0.00;0.00;;;;;;;6.03;27.80;101027.84;6282610;22;20011;-80
2022/03/18 15:37:32;;;;;;;0.00;0.00;;;;;;;5.95;28.58;101025.34;6280201;22;20086;-81
2022/03/18 15:39:58;;;;;;;0.15;0.15;;;;;;;5.93;28.35;101029.00;6279668;22;20007;-81
2022/03/18 15:42:24;;;;;;;0.00;0.00;;;;;;;5.87;28.00;101035.09;6279773;22;20117;-81
2022/03/18 15:44:51;;;;;;;0.00;0.00;;;;;;;5.72;29.00;101024.56;6280167;22;20050;-81
2022/03/18 15:47:17;;;;;;;0.00;0.00;;;;;;;5.79;29.44;101045.88;6279399;22;20011;-80
2022/03/18 15:49:45;;;;;;;0.00;0.00;;;;;;;5.65;29.12;101044.16;6278608;22;20003;-81
2022/03/18 15:52:15;;;;;;;0.03;0.03;;;;;;;5.66;29.47;101038.63;6310031;22;20068;-79
2022/03/18 15:59:52;;;;;;;0.75;0.75;;;;;;;5.42;29.00;101046.03;6236894;22;20035;-81
2022/03/18 16:02:24;;;;;;;0.00;0.00;;;;;;;5.44;29.24;101049.31;6288453;22;20088;-81
2022/03/18 16:04:49;;;;;;;0.55;0.55;;;;;;;5.45;29.87;101050.13;6300799;22;20449;-80
2022/03/18 16:08:05;;;;;;;0.28;0.28;;;;;;;5.36;29.34;101059.22;6324498;22;20013;-79
2022/03/18 16:10:57;;;;;;;0.25;0.25;;;;;;;5.20;29.87;101070.94;6275007;22;20034;-79
2022/03/18 16:13:40;;;;;;;0.80;0.80;;;;;;;5.21;30.58;101070.75;6156386;22;20029;-79
2022/03/18 16:16:10;;;;;;;0.05;0.05;;;;;;;5.17;30.95;101087.25;6253498;22;20012;-80
2022/03/18 16:18:58;;;;;;;0.80;0.80;;;;;;;5.11;30.86;101084.34;6262711;22;19998;-80
2022/03/18 16:21:25;;;;;;;0.10;0.10;;;;;;;5.06;30.52;101081.41;6266413;22;20005;-78
2022/03/18 16:23:53;;;;;;;0.98;0.98;;;;;;;5.04;31.15;101078.16;6251437;22;20009;-79
2022/03/18 16:26:22;;;;;;;0.00;0.00;;;;;;;4.99;31.45;101085.03;6250180;22;20356;-79
2022/03/18 16:28:48;;;;;;;0.22;0.22;;;;;;;4.91;31.00;101081.47;6248842;22;20446;-78
2022/03/18 16:31:16;;;;;;;0.10;0.10;;;;;;;4.88;31.33;101091.63;6148651;22;20006;-79
2022/03/18 16:33:42;;;;;;;0.08;0.08;;;;;;;4.79;31.57;101089.09;6250639;22;20027;-79
2022/03/18 16:36:08;;;;;;;0.25;0.25;;;;;;;4.77;31.75;101103.53;6249489;22;20033;-79
2022/03/18 16:38:35;;;;;;;0.85;0.77;;;;;;;4.73;32.15;101087.19;6252977;22;20001;-80
2022/03/18 16:41:06;;;;;;;0.10;0.10;;;;;;;4.67;32.37;101105.69;6249979;22;20086;-79
2022/03/18 16:43:32;;;;;;;0.00;0.00;;;;;;;4.62;32.58;101112.34;6250885;22;20009;-79
2022/03/18 16:51:25;;;;;;;0.00;0.00;;;;;;;4.38;33.06;101115.31;6148078;23;20020;-78
2022/03/18 16:53:51;;;;;;;1.67;1.55;;;;;;;4.28;33.26;101113.75;6147799;22;20013;-78
2022/03/18 16:56:16;;;;;;;0.00;0.00;;;;;;;4.27;33.58;101122.72;6146685;23;20351;-78
2022/03/18 16:58:44;;;;;;;1.02;0.57;;;;;;;4.23;33.26;101139.97;6249327;22;20097;-79
2022/03/18 17:04:06;;;;;;;0.25;0.20;;;;;;;4.18;33.30;101130.94;6338950;22;20019;-77
2022/03/18 17:06:31;;;;;;;0.00;0.00;;;;;;;4.18;33.39;101138.88;6318437;22;20003;-76
2022/03/18 17:08:57;;;;;;;0.40;0.40;;;;;;;4.16;33.82;101141.69;6307151;22;20003;-78
2022/03/18 17:11:22;;;;;;;0.00;0.00;;;;;;;4.11;33.82;101144.06;6305160;22;20432;-77
2022/03/18 17:13:48;;;;;;;0.20;0.20;;;;;;;4.09;33.89;101138.13;6276741;22;20703;-79
2022/03/18 17:16:13;;;;;;;0.20;0.20;;;;;;;4.06;34.02;101152.53;6277861;22;20082;-78
2022/03/18 17:18:39;;;;;;;0.00;0.00;;;;;;;4.05;33.91;101142.13;6275936;22;20018;-78
2022/03/18 17:21:06;;;;;;;0.00;0.00;;;;;;;3.95;33.86;101145.84;6275374;22;20014;-78
2022/03/18 17:23:32;;;;;;;0.00;0.00;;;;;;;3.84;34.15;101152.44;6305126;22;20027;-79
2022/03/18 17:25:58;;;;;;;0.63;0.63;;;;;;;3.75;33.92;101156.16;6277264;22;20528;-77
2022/03/18 17:28:23;;;;;;;0.00;0.00;;;;;;;3.68;34.15;101148.06;6277473;22;20027;-77
2022/03/18 17:30:50;;;;;;;0.85;0.35;;;;;;;3.68;34.11;101148.06;6281288;22;19999;-81
2022/03/18 17:33:15;;;;;;;0.80;0.80;;;;;;;3.66;34.86;101163.34;6276770;22;19995;-75
2022/03/18 17:35:41;;;;;;;0.45;0.45;;;;;;;3.60;34.60;101161.41;6304459;22;20017;-77